Time;durP1;ratioP1;P1;durP2;ratioP2;P2;SDS_P1;SDS_P2;PMS_P1;PMS_P2;Temp;Humidity;BMP_temperature;BMP_pressure;BME280_temperature;BME280_humidity;BME280_pressure;Samples;Min_cycle;Max_cycle;Signal;HPM_P1;HPM_P2
2023/02/15 00:01:44;;;;;;;22.80;16.33;;;4.10;99.90;;;;;;5047605;28;20204;-70
2023/02/15 00:04:15;;;;;;;21.90;15.67;;;4.10;99.90;;;;;;5047177;28;20311;-70
2023/02/15 00:06:42;;;;;;;20.57;15.17;;;4.10;99.90;;;;;;5047182;28;20200;-70
2023/02/15 00:09:11;;;;;;;20.53;14.87;;;4.00;99.90;;;;;;5047208;28;20315;-70
2023/02/15 00:11:42;;;;;;;18.43;14.27;;;4.00;99.90;;;;;;5047500;28;20291;-70
2023/02/15 00:14:12;;;;;;;19.93;14.17;;;4.00;99.90;;;;;;5047520;28;20196;-72
2023/02/15 00:16:40;;;;;;;19.13;14.60;;;4.00;99.90;;;;;;5046987;28;20597;-72
2023/02/15 00:19:07;;;;;;;22.57;15.73;;;3.90;99.90;;;;;;5047179;28;20756;-73
2023/02/15 00:21:35;;;;;;;20.70;14.10;;;3.90;99.90;;;;;;5047208;28;20301;-73
2023/02/15 00:24:04;;;;;;;19.17;14.30;;;3.90;99.90;;;;;;5046557;28;20667;-72
2023/02/15 00:26:34;;;;;;;20.27;15.20;;;3.90;99.90;;;;;;5047272;28;20247;-72
2023/02/15 00:29:01;;;;;;;20.30;14.23;;;3.90;99.90;;;;;;5047605;28;20291;-72
2023/02/15 00:31:30;;;;;;;17.83;13.70;;;3.80;99.90;;;;;;5035225;28;20299;-72
2023/02/15 00:34:01;;;;;;;21.73;14.63;;;3.80;99.90;;;;;;5046572;28;20295;-72
2023/02/15 00:36:28;;;;;;;21.40;14.20;;;3.80;99.90;;;;;;5046830;28;20611;-73
2023/02/15 00:38:55;;;;;;;18.57;13.50;;;3.80;99.90;;;;;;5036176;28;20228;-74
2023/02/15 00:41:21;;;;;;;19.63;14.07;;;3.80;99.90;;;;;;5027544;28;20299;-73
2023/02/15 00:43:50;;;;;;;20.90;14.43;;;3.70;99.90;;;;;;5034074;28;20300;-73
2023/02/15 00:46:17;;;;;;;19.47;14.10;;;3.70;99.90;;;;;;5026958;28;20323;-73
2023/02/15 00:48:44;;;;;;;20.03;14.23;;;3.60;99.90;;;;;;5034516;28;20369;-73
2023/02/15 00:51:10;;;;;;;19.43;13.13;;;3.60;99.90;;;;;;5047207;28;20200;-73
2023/02/15 00:53:37;;;;;;;19.33;13.73;;;3.60;99.90;;;;;;5046330;28;20200;-72
2023/02/15 00:56:04;;;;;;;20.20;13.70;;;3.50;99.90;;;;;;5047112;28;20733;-72
2023/02/15 00:58:31;;;;;;;19.47;14.07;;;3.50;99.90;;;;;;5047455;28;20291;-72
2023/02/15 01:01:06;;;;;;;18.43;13.33;;;3.50;99.90;;;;;;5049614;28;20234;-72
2023/02/15 01:03:34;;;;;;;20.63;13.53;;;3.50;99.90;;;;;;5030736;28;20199;-72
2023/02/15 01:06:01;;;;;;;19.83;14.20;;;3.50;99.90;;;;;;5030775;28;20276;-73
2023/02/15 01:08:28;;;;;;;18.43;13.47;;;3.50;99.90;;;;;;5030386;28;20201;-72
2023/02/15 01:10:55;;;;;;;17.53;12.90;;;3.40;99.90;;;;;;5030955;28;20299;-72
2023/02/15 01:13:22;;;;;;;19.97;14.47;;;3.40;99.90;;;;;;5031291;28;20228;-72
2023/02/15 01:15:54;;;;;;;19.33;13.93;;;3.40;99.90;;;;;;5030747;28;20361;-72
2023/02/15 01:18:23;;;;;;;19.77;13.33;;;3.40;99.90;;;;;;5030628;28;20694;-71
2023/02/15 01:20:50;;;;;;;21.07;14.37;;;3.40;99.90;;;;;;5030505;28;20295;-70
2023/02/15 01:23:17;;;;;;;21.03;14.07;;;3.40;99.90;;;;;;5030375;28;20200;-70
2023/02/15 01:25:44;;;;;;;19.97;13.63;;;3.40;99.90;;;;;;5050204;28;20326;-70
2023/02/15 01:28:12;;;;;;;19.43;13.57;;;3.30;99.90;;;;;;5050585;28;20632;-70
2023/02/15 01:30:39;;;;;;;20.33;14.33;;;3.30;99.90;;;;;;5044177;28;20193;-73
2023/02/15 01:33:05;;;;;;;20.53;13.87;;;3.30;99.90;;;;;;5030481;28;20636;-73
2023/02/15 01:35:37;;;;;;;20.50;14.00;;;3.30;99.90;;;;;;5030258;28;20295;-70
2023/02/15 01:38:04;;;;;;;19.47;14.37;;;3.20;99.90;;;;;;5033555;28;20283;-70
2023/02/15 01:40:31;;;;;;;18.93;13.80;;;3.20;99.90;;;;;;5049513;28;20251;-70
2023/02/15 01:42:58;;;;;;;16.40;13.20;;;3.20;99.90;;;;;;5045210;28;20295;-70
2023/02/15 01:45:28;;;;;;;23.60;15.10;;;3.20;99.90;;;;;;5050129;28;20327;-70
2023/02/15 01:47:59;;;;;;;19.50;14.30;;;3.20;99.90;;;;;;5050201;28;20296;-70
2023/02/15 01:50:30;;;;;;;20.37;13.70;;;3.20;99.90;;;;;;5049018;28;20265;-70
2023/02/15 01:53:03;;;;;;;19.23;13.30;;;3.20;99.90;;;;;;5029460;28;20195;-70
2023/02/15 01:55:34;;;;;;;21.23;14.23;;;3.20;99.90;;;;;;5029891;28;20220;-70
2023/02/15 01:58:02;;;;;;;20.00;14.30;;;3.20;99.90;;;;;;5037752;28;20268;-70
2023/02/15 02:00:29;;;;;;;19.53;14.00;;;3.10;99.90;;;;;;5050413;28;20575;-70
2023/02/15 02:02:57;;;;;;;18.00;13.57;;;3.20;99.90;;;;;;5047431;28;20307;-70
2023/02/15 02:05:25;;;;;;;19.83;14.03;;;3.10;99.90;;;;;;5029960;28;20239;-70
2023/02/15 02:07:55;;;;;;;19.93;14.03;;;3.10;99.90;;;;;;5029768;28;20209;-70
2023/02/15 02:10:44;;;;;;;18.50;13.67;;;3.00;99.90;;;;;;5028749;28;20223;-70
2023/02/15 02:13:11;;;;;;;19.80;13.87;;;3.00;99.90;;;;;;5029953;28;20200;-69
2023/02/15 02:20:14;;;;;;;18.13;13.17;;;3.00;99.90;;;;;;5022427;28;20258;-72
2023/02/15 02:23:05;;;;;;;18.67;13.53;;;3.00;99.90;;;;;;5029370;28;20231;-72
2023/02/15 02:26:00;;;;;;;21.33;14.80;;;2.90;99.90;;;;;;5029683;28;20253;-71
2023/02/15 02:28:55;;;;;;;18.73;13.87;;;2.90;99.90;;;;;;5049681;28;20228;-71
2023/02/15 02:31:40;;;;;;;21.10;14.80;;;2.90;99.90;;;;;;4998919;28;20240;-71
2023/02/15 02:34:15;;;;;;;20.33;14.03;;;2.90;99.90;;;;;;5029840;28;20288;-71
2023/02/15 02:36:48;;;;;;;24.23;15.50;;;2.90;99.90;;;;;;5044093;28;20716;-71
2023/02/15 02:39:31;;;;;;;20.97;14.37;;;2.90;99.90;;;;;;5035445;28;20286;-71
2023/02/15 02:42:04;;;;;;;21.77;15.17;;;2.80;99.90;;;;;;5045766;28;20210;-71
2023/02/15 02:44:39;;;;;;;20.43;14.13;;;2.80;99.90;;;;;;5029586;28;20295;-71
2023/02/15 02:47:10;;;;;;;21.20;14.40;;;2.70;99.90;;;;;;5041724;28;20637;-71
2023/02/15 02:49:40;;;;;;;19.03;13.63;;;2.70;99.90;;;;;;5039875;28;20695;-71
2023/02/15 02:52:23;;;;;;;21.07;14.83;;;2.70;99.90;;;;;;5048501;28;20279;-71
2023/02/15 02:54:50;;;;;;;19.53;14.60;;;2.70;99.90;;;;;;5043423;28;20303;-71
2023/02/15 02:57:19;;;;;;;21.10;14.43;;;2.70;99.90;;;;;;5048927;28;20661;-72
2023/02/15 02:59:48;;;;;;;19.30;14.43;;;2.70;99.90;;;;;;5037300;28;20320;-72
2023/02/15 03:02:22;;;;;;;20.20;14.83;;;2.70;99.90;;;;;;5028662;28;20248;-72
2023/02/15 03:04:58;;;;;;;19.47;14.33;;;2.70;99.90;;;;;;5028481;28;20284;-72
2023/02/15 03:07:28;;;;;;;22.97;15.63;;;2.70;99.90;;;;;;5028238;28;20835;-71
2023/02/15 03:09:58;;;;;;;21.37;15.10;;;2.70;99.90;;;;;;5028168;28;20203;-71
2023/02/15 03:12:29;;;;;;;22.87;16.00;;;2.70;99.90;;;;;;5028638;28;20241;-70
2023/02/15 03:15:01;;;;;;;21.83;15.40;;;2.70;99.90;;;;;;5028557;28;20225;-71
2023/02/15 03:17:32;;;;;;;21.67;15.17;;;2.70;99.90;;;;;;5028587;28;20274;-71
2023/02/15 03:20:05;;;;;;;22.83;16.40;;;2.70;99.90;;;;;;5045631;28;20282;-71
2023/02/15 03:22:35;;;;;;;24.83;16.73;;;2.70;99.90;;;;;;5047387;28;20279;-71
2023/02/15 03:25:07;;;;;;;22.40;15.80;;;2.70;99.90;;;;;;5047746;28;20211;-70
2023/02/15 03:27:39;;;;;;;24.17;16.60;;;2.80;99.90;;;;;;5048646;28;20275;-71
2023/02/15 03:30:08;;;;;;;26.70;18.47;;;2.80;99.90;;;;;;5034687;28;20284;-71
2023/02/15 03:32:37;;;;;;;21.97;16.67;;;2.70;99.90;;;;;;5026084;28;20244;-71
2023/02/15 03:35:06;;;;;;;24.50;16.90;;;2.70;99.90;;;;;;5031275;28;20287;-73
2023/02/15 03:37:37;;;;;;;28.00;17.40;;;2.70;99.90;;;;;;5042261;28;20761;-72
2023/02/15 03:46:21;;;;;;;26.83;17.47;;;2.60;99.90;;;;;;5047945;28;20230;-73
2023/02/15 03:48:52;;;;;;;28.27;18.80;;;2.70;99.90;;;;;;5039848;28;20236;-72
2023/02/15 03:51:36;;;;;;;26.57;18.30;;;2.70;99.90;;;;;;5042987;28;20291;-72
2023/02/15 03:54:06;;;;;;;28.80;18.40;;;2.70;99.90;;;;;;5048532;28;20198;-73
2023/02/15 03:56:36;;;;;;;26.33;18.13;;;2.70;99.90;;;;;;5048381;28;20279;-73
2023/02/15 04:02:00;;;;;;;27.80;18.53;;;2.70;99.90;;;;;;5027775;28;20191;-73
2023/02/15 04:04:36;;;;;;;28.40;19.23;;;2.70;99.90;;;;;;5027418;28;20207;-72
2023/02/15 04:07:06;;;;;;;29.87;20.00;;;2.60;99.90;;;;;;5027845;28;20232;-73
2023/02/15 04:12:17;;;;;;;33.10;19.90;;;2.60;99.90;;;;;;5027925;28;20266;-72
2023/02/15 04:17:29;;;;;;;32.40;20.93;;;2.80;99.90;;;;;;5047307;28;20278;-72
2023/02/15 04:25:26;;;;;;;33.73;21.87;;;2.90;99.90;;;;;;5027893;28;20293;-74
2023/02/15 04:27:54;;;;;;;32.80;21.37;;;2.90;99.90;;;;;;5038848;28;20240;-71
2023/02/15 04:30:23;;;;;;;37.13;22.53;;;3.00;99.90;;;;;;5043019;28;20197;-71
2023/02/15 04:32:50;;;;;;;32.90;20.03;;;3.00;99.90;;;;;;5039786;28;20297;-71
2023/02/15 04:35:18;;;;;;;33.03;21.20;;;3.00;99.90;;;;;;5047028;28;20287;-71
2023/02/15 04:37:46;;;;;;;34.23;20.57;;;3.00;99.90;;;;;;5046941;28;20203;-70
2023/02/15 04:40:15;;;;;;;33.73;21.73;;;3.00;99.90;;;;;;5046999;28;20295;-70
2023/02/15 04:42:42;;;;;;;35.40;21.57;;;3.00;99.90;;;;;;5047150;28;20298;-70
2023/02/15 04:45:09;;;;;;;31.83;20.57;;;3.10;99.90;;;;;;5047187;28;20747;-70
2023/02/15 04:47:36;;;;;;;33.67;21.07;;;3.10;99.90;;;;;;5047376;28;20270;-72
2023/02/15 04:50:02;;;;;;;35.70;20.07;;;3.00;99.90;;;;;;5046902;28;20212;-70
2023/02/15 04:52:29;;;;;;;30.50;19.50;;;3.00;99.90;;;;;;5047645;28;20237;-70
2023/02/15 04:54:58;;;;;;;34.00;21.00;;;3.00;99.90;;;;;;5046757;28;20245;-70
2023/02/15 04:57:24;;;;;;;32.77;21.17;;;3.00;99.90;;;;;;5047627;28;20571;-70
2023/02/15 04:59:51;;;;;;;31.97;20.37;;;2.90;99.90;;;;;;5046209;28;20283;-70
2023/02/15 05:02:18;;;;;;;35.70;21.27;;;2.90;99.90;;;;;;5047598;28;20295;-70
2023/02/15 05:04:45;;;;;;;33.77;20.97;;;2.80;99.90;;;;;;5047314;28;20295;-70
2023/02/15 05:07:12;;;;;;;33.77;21.30;;;2.80;99.90;;;;;;5047476;28;20321;-70
2023/02/15 05:09:39;;;;;;;34.50;21.40;;;2.80;99.90;;;;;;5046431;28;20672;-69
2023/02/15 05:12:07;;;;;;;32.20;20.50;;;2.80;99.90;;;;;;5047086;28;20783;-69
2023/02/15 05:14:34;;;;;;;33.77;21.20;;;2.80;99.90;;;;;;5046806;28;20322;-70
2023/02/15 05:17:03;;;;;;;32.90;20.93;;;2.80;99.90;;;;;;5047092;28;20232;-70
2023/02/15 05:19:30;;;;;;;34.77;20.87;;;2.80;99.90;;;;;;5045881;28;20293;-71
2023/02/15 05:21:57;;;;;;;32.67;20.17;;;2.80;99.90;;;;;;5047099;28;20322;-71
2023/02/15 05:29:57;;;;;;;33.37;21.30;;;2.70;99.90;;;;;;5027270;28;20564;-71
2023/02/15 05:32:24;;;;;;;35.27;21.00;;;2.70;99.90;;;;;;5047160;28;20208;-71
2023/02/15 05:34:51;;;;;;;34.53;20.80;;;2.70;99.90;;;;;;5042053;28;20299;-71
2023/02/15 05:37:18;;;;;;;36.70;21.50;;;2.70;99.90;;;;;;5029275;28;20303;-72
2023/02/15 05:39:45;;;;;;;31.60;20.90;;;2.70;99.90;;;;;;5026983;28;20255;-71
2023/02/15 05:42:13;;;;;;;36.93;21.80;;;2.70;99.90;;;;;;5028204;28;20216;-71
2023/02/15 05:44:40;;;;;;;31.90;20.70;;;2.70;99.90;;;;;;5046802;28;20232;-72
2023/02/15 05:47:07;;;;;;;34.57;20.20;;;2.70;99.90;;;;;;5049266;28;20236;-72
2023/02/15 05:49:35;;;;;;;33.07;20.43;;;2.70;99.90;;;;;;5047335;28;20210;-72
2023/02/15 05:52:02;;;;;;;31.97;20.07;;;2.70;99.90;;;;;;5050533;28;20208;-72
2023/02/15 05:54:29;;;;;;;36.97;21.97;;;2.70;99.90;;;;;;5048894;28;20197;-71
2023/02/15 05:56:56;;;;;;;36.53;22.50;;;2.70;99.90;;;;;;5038602;28;20204;-71
2023/02/15 05:59:24;;;;;;;33.03;21.57;;;2.60;99.90;;;;;;5030813;28;20710;-72
2023/02/15 06:01:51;;;;;;;39.77;21.97;;;2.70;99.90;;;;;;5030439;28;20295;-72
2023/02/15 06:04:18;;;;;;;37.20;21.40;;;2.70;99.90;;;;;;5030574;28;20299;-71
2023/02/15 06:06:45;;;;;;;38.67;22.43;;;2.60;99.90;;;;;;5030242;28;20290;-71
2023/02/15 06:09:12;;;;;;;35.13;21.37;;;2.60;99.90;;;;;;5044476;28;20291;-72
2023/02/15 06:11:39;;;;;;;33.33;21.13;;;2.60;99.90;;;;;;5050410;28;20219;-71
2023/02/15 06:14:06;;;;;;;35.80;20.97;;;2.60;99.90;;;;;;5050257;28;20220;-72
2023/02/15 06:16:34;;;;;;;37.53;21.93;;;2.60;99.90;;;;;;5050126;28;20300;-72
2023/02/15 06:19:01;;;;;;;34.20;20.77;;;2.50;99.90;;;;;;5049456;28;20236;-71
2023/02/15 06:21:28;;;;;;;35.23;22.30;;;2.50;99.90;;;;;;5046733;28;20219;-73
2023/02/15 06:23:55;;;;;;;34.30;20.13;;;2.50;99.90;;;;;;5049068;28;20676;-71
2023/02/15 06:26:22;;;;;;;35.03;22.27;;;2.60;99.90;;;;;;5049712;28;20232;-70
2023/02/15 06:28:49;;;;;;;36.13;21.70;;;2.50;99.90;;;;;;5046345;28;20215;-70
2023/02/15 06:31:16;;;;;;;35.33;20.90;;;2.50;99.90;;;;;;5037238;28;20603;-70
2023/02/15 06:33:44;;;;;;;34.77;20.27;;;2.50;99.90;;;;;;5034562;28;20717;-70
2023/02/15 06:36:12;;;;;;;38.53;21.27;;;2.60;99.90;;;;;;5047867;28;20216;-70
2023/02/15 06:38:39;;;;;;;35.33;21.50;;;2.50;99.90;;;;;;5047252;28;20234;-70
2023/02/15 06:41:06;;;;;;;32.50;20.23;;;2.50;99.90;;;;;;5029275;28;20655;-70
2023/02/15 06:43:33;;;;;;;35.30;21.20;;;2.40;99.90;;;;;;5030173;28;20750;-71
2023/02/15 06:46:01;;;;;;;34.60;20.07;;;2.40;99.90;;;;;;5038431;28;20211;-70
2023/02/15 06:48:28;;;;;;;36.50;20.80;;;2.30;99.90;;;;;;5027839;28;20258;-70
2023/02/15 06:50:56;;;;;;;30.03;19.67;;;2.30;99.90;;;;;;5027409;28;20231;-70
2023/02/15 06:53:23;;;;;;;34.27;21.00;;;2.30;99.90;;;;;;5027295;28;20540;-70
2023/02/15 06:55:50;;;;;;;35.70;20.17;;;2.30;99.90;;;;;;5027448;28;20407;-71
2023/02/15 06:58:16;;;;;;;35.33;20.10;;;2.30;99.90;;;;;;5027084;28;20212;-71
2023/02/15 07:00:43;;;;;;;35.63;20.23;;;2.30;99.90;;;;;;5037399;28;20207;-70
2023/02/15 07:03:10;;;;;;;33.57;20.73;;;2.30;99.90;;;;;;5047422;28;20296;-70
2023/02/15 07:05:37;;;;;;;32.67;20.00;;;2.40;99.90;;;;;;5046560;28;20557;-70
2023/02/15 07:08:05;;;;;;;35.87;20.33;;;2.40;99.90;;;;;;5046964;28;20267;-70
2023/02/15 07:10:32;;;;;;;31.70;19.77;;;2.40;99.90;;;;;;5046797;28;20797;-70
2023/02/15 07:12:58;;;;;;;32.73;20.23;;;2.40;99.90;;;;;;5046903;28;20315;-70
2023/02/15 07:15:25;;;;;;;35.13;20.93;;;2.40;99.90;;;;;;5046704;28;20868;-70
2023/02/15 07:17:52;;;;;;;36.33;19.33;;;2.40;99.90;;;;;;5031688;28;20299;-70
2023/02/15 07:20:21;;;;;;;33.17;19.93;;;2.40;99.90;;;;;;5045302;28;20239;-70
2023/02/15 07:22:48;;;;;;;33.47;19.97;;;2.40;99.90;;;;;;5046164;28;20208;-70
2023/02/15 07:25:18;;;;;;;31.83;19.47;;;2.40;99.90;;;;;;5044646;28;20216;-70
2023/02/15 07:27:45;;;;;;;32.30;19.83;;;2.30;99.90;;;;;;5034168;28;20231;-70
2023/02/15 07:30:14;;;;;;;32.50;20.13;;;2.30;99.90;;;;;;5041979;28;20580;-71
2023/02/15 07:33:22;;;;;;;30.97;19.77;;;2.30;99.90;;;;;;5027451;28;20507;-71
2023/02/15 07:35:28;;;;;;;30.10;18.23;;;2.30;99.90;;;;;;5026934;28;20219;-71
2023/02/15 07:37:55;;;;;;;27.13;18.07;;;2.40;99.90;;;;;;5026876;28;21028;-71
2023/02/15 07:40:24;;;;;;;30.50;18.77;;;2.40;99.90;;;;;;5028444;28;20553;-70
2023/02/15 07:42:54;;;;;;;32.67;19.10;;;2.40;99.90;;;;;;5031124;28;20319;-70
2023/02/15 07:45:21;;;;;;;31.33;18.97;;;2.40;99.90;;;;;;5048100;28;20207;-71
2023/02/15 07:47:48;;;;;;;35.50;19.87;;;2.40;99.90;;;;;;5047719;28;20251;-71
2023/02/15 07:50:15;;;;;;;27.10;17.87;;;2.40;99.90;;;;;;5028365;28;20235;-70
2023/02/15 07:52:42;;;;;;;25.87;17.07;;;2.40;99.90;;;;;;5042364;28;20324;-71
2023/02/15 07:55:12;;;;;;;26.67;16.90;;;2.50;99.90;;;;;;5048035;28;20637;-71
2023/02/15 07:57:43;;;;;;;24.73;17.10;;;2.50;99.90;;;;;;5048003;28;20250;-70
2023/02/15 08:00:12;;;;;;;26.73;17.40;;;2.50;99.90;;;;;;5027811;28;20193;-71
2023/02/15 08:02:39;;;;;;;24.77;16.37;;;2.50;99.90;;;;;;5027744;28;20310;-70
2023/02/15 08:05:07;;;;;;;24.30;16.57;;;2.50;99.90;;;;;;5027784;28;20730;-71
2023/02/15 08:07:34;;;;;;;25.00;16.63;;;2.50;99.90;;;;;;5027949;28;20327;-71
2023/02/15 08:10:01;;;;;;;22.93;16.80;;;2.50;99.90;;;;;;5027376;28;20215;-70
2023/02/15 08:12:28;;;;;;;24.70;16.53;;;2.50;99.90;;;;;;5032186;28;20303;-71
2023/02/15 08:14:56;;;;;;;26.07;17.97;;;2.50;99.90;;;;;;5045749;28;20231;-71
2023/02/15 08:17:23;;;;;;;27.67;18.03;;;2.50;99.90;;;;;;5039110;28;20206;-71
2023/02/15 08:19:50;;;;;;;25.60;17.60;;;2.50;99.90;;;;;;5040644;28;20240;-71
2023/02/15 08:22:17;;;;;;;26.40;17.27;;;2.50;99.90;;;;;;5027630;28;20236;-71
2023/02/15 08:24:44;;;;;;;30.53;17.10;;;2.50;99.90;;;;;;5041167;28;20204;-71
2023/02/15 08:27:12;;;;;;;27.43;18.07;;;2.50;99.90;;;;;;5047428;28;20224;-71
2023/02/15 08:29:41;;;;;;;25.03;17.00;;;2.50;99.90;;;;;;5047296;28;20816;-71
2023/02/15 08:32:12;;;;;;;24.53;16.53;;;2.60;99.90;;;;;;5029731;28;20201;-71
2023/02/15 08:34:41;;;;;;;28.03;18.43;;;2.60;99.90;;;;;;5027505;28;20599;-71
2023/02/15 08:37:09;;;;;;;27.77;17.30;;;2.60;99.90;;;;;;5027339;28;20215;-71
2023/02/15 08:39:36;;;;;;;26.70;16.80;;;2.60;99.90;;;;;;5027079;28;20239;-71
2023/02/15 08:42:03;;;;;;;24.50;16.57;;;2.60;99.90;;;;;;5044847;28;20262;-71
2023/02/15 08:44:30;;;;;;;24.53;16.60;;;2.70;99.90;;;;;;5047160;28;20291;-71
2023/02/15 08:47:02;;;;;;;24.63;16.70;;;2.70;99.90;;;;;;5046784;28;20232;-71
2023/02/15 08:49:31;;;;;;;24.57;16.57;;;2.70;99.90;;;;;;5047083;28;20200;-71
2023/02/15 08:51:57;;;;;;;23.67;16.57;;;2.70;99.90;;;;;;5046913;28;20307;-71
2023/02/15 08:54:24;;;;;;;23.77;17.00;;;2.80;99.90;;;;;;5046757;28;20258;-71
2023/02/15 08:56:54;;;;;;;23.40;16.10;;;2.80;99.90;;;;;;5047163;28;20298;-71
2023/02/15 08:59:35;;;;;;;24.60;16.47;;;2.80;99.90;;;;;;5046924;28;20654;-70
2023/02/15 09:02:02;;;;;;;21.37;15.27;;;2.80;99.90;;;;;;5044651;28;20719;-71
2023/02/15 09:04:30;;;;;;;23.00;16.67;;;2.90;99.90;;;;;;5026862;28;20213;-70
2023/02/15 09:06:57;;;;;;;24.60;16.73;;;2.90;99.90;;;;;;5027202;28;20656;-71
2023/02/15 09:09:24;;;;;;;22.97;15.90;;;2.90;99.90;;;;;;5040148;28;20208;-71
2023/02/15 09:11:52;;;;;;;23.10;17.10;;;2.90;99.90;;;;;;5046894;28;20227;-71
2023/02/15 09:14:21;;;;;;;26.67;16.07;;;2.90;99.90;;;;;;5045623;28;20328;-71
2023/02/15 09:16:51;;;;;;;23.30;16.03;;;3.00;99.90;;;;;;5046414;28;20200;-71
2023/02/15 09:19:19;;;;;;;23.00;16.17;;;3.00;99.90;;;;;;5038218;28;20667;-71
2023/02/15 09:21:47;;;;;;;21.93;15.97;;;3.00;99.90;;;;;;5050782;28;20208;-71
2023/02/15 09:24:16;;;;;;;22.03;15.70;;;3.00;99.90;;;;;;5050831;28;20208;-71
2023/02/15 09:26:45;;;;;;;20.90;15.00;;;3.10;99.90;;;;;;5050213;28;20661;-71
2023/02/15 09:29:13;;;;;;;22.33;15.13;;;3.10;99.90;;;;;;5049932;28;20231;-71
2023/02/15 09:31:44;;;;;;;22.63;16.13;;;3.10;99.90;;;;;;5034664;28;20208;-71
2023/02/15 09:34:11;;;;;;;24.43;15.83;;;3.10;99.90;;;;;;5033175;28;20232;-71
2023/02/15 09:36:39;;;;;;;22.27;15.67;;;3.10;99.90;;;;;;5050460;28;20644;-71
2023/02/15 09:39:11;;;;;;;23.63;15.77;;;3.20;99.90;;;;;;5050511;28;20578;-71
2023/02/15 09:42:02;;;;;;;22.10;15.63;;;3.00;99.90;;;;;;5050566;28;20286;-71
2023/02/15 09:44:42;;;;;;;21.73;15.73;;;2.90;99.90;;;;;;5050701;28;20223;-71
2023/02/15 09:47:31;;;;;;;20.60;15.50;;;3.00;99.90;;;;;;5050387;28;20303;-71
2023/02/15 09:50:06;;;;;;;22.77;15.90;;;3.00;99.90;;;;;;5038861;28;20228;-71
2023/02/15 09:52:51;;;;;;;21.20;14.93;;;3.10;99.90;;;;;;5030681;28;20299;-71
2023/02/15 09:55:32;;;;;;;22.20;15.40;;;3.10;99.90;;;;;;5030772;28;20279;-71
2023/02/15 09:58:09;;;;;;;27.10;16.20;;;3.10;99.90;;;;;;5030571;28;20197;-71
2023/02/15 10:00:42;;;;;;;24.73;17.10;;;3.20;99.90;;;;;;5030663;28;20616;-71
2023/02/15 10:03:20;;;;;;;25.23;16.70;;;3.20;99.90;;;;;;5030458;28;20647;-71
2023/02/15 10:06:01;;;;;;;24.33;15.87;;;3.30;99.90;;;;;;5044477;28;20291;-71
2023/02/15 10:08:55;;;;;;;23.30;16.27;;;3.30;99.90;;;;;;5050043;28;20219;-71
2023/02/15 10:11:42;;;;;;;23.13;16.13;;;3.30;99.90;;;;;;5030029;28;20291;-71
2023/02/15 10:14:37;;;;;;;23.90;16.63;;;3.40;99.90;;;;;;5029821;28;20732;-71
2023/02/15 10:17:15;;;;;;;23.53;16.97;;;3.40;99.90;;;;;;5043090;28;20211;-71
2023/02/15 10:19:50;;;;;;;25.17;16.50;;;3.50;99.90;;;;;;5049475;28;20329;-71
2023/02/15 10:22:27;;;;;;;23.17;16.43;;;3.50;99.90;;;;;;5049726;28;20275;-71
2023/02/15 10:25:11;;;;;;;23.20;15.57;;;3.50;99.90;;;;;;5046118;28;20261;-71
2023/02/15 10:27:46;;;;;;;23.57;16.77;;;3.50;99.90;;;;;;5029587;28;20240;-71
2023/02/15 10:30:14;;;;;;;23.57;16.97;;;3.50;99.90;;;;;;5029725;28;20195;-71
2023/02/15 10:32:52;;;;;;;23.33;16.87;;;3.60;99.90;;;;;;5030700;28;20292;-71
2023/02/15 10:35:26;;;;;;;23.37;16.60;;;3.60;99.90;;;;;;5029532;28;20283;-71
2023/02/15 10:38:17;;;;;;;24.50;17.23;;;3.70;99.90;;;;;;5029445;28;20296;-71
2023/02/15 10:40:59;;;;;;;22.67;16.03;;;3.70;99.90;;;;;;5027983;28;20651;-71
2023/02/15 10:43:47;;;;;;;24.23;17.07;;;3.70;99.90;;;;;;5029686;28;20185;-71
2023/02/15 10:46:27;;;;;;;26.90;18.07;;;3.80;99.90;;;;;;5029638;28;20366;-71
2023/02/15 10:49:07;;;;;;;25.43;17.20;;;3.90;99.90;;;;;;5037933;28;20318;-71
2023/02/15 10:51:44;;;;;;;26.40;17.27;;;3.90;99.90;;;;;;5029497;28;20228;-71
2023/02/15 10:54:22;;;;;;;26.33;18.13;;;3.90;99.90;;;;;;5029181;28;20311;-71
2023/02/15 10:57:00;;;;;;;24.97;16.53;;;3.90;99.90;;;;;;5029318;28;20196;-71
2023/02/15 10:59:43;;;;;;;25.53;17.23;;;4.00;99.90;;;;;;5029428;28;20288;-71
2023/02/15 11:02:21;;;;;;;27.17;18.47;;;4.10;99.90;;;;;;5041748;28;20301;-71
2023/02/15 11:04:58;;;;;;;25.27;17.23;;;4.20;99.90;;;;;;5048740;28;20284;-71
2023/02/15 11:07:28;;;;;;;25.40;17.37;;;4.30;99.90;;;;;;5049188;28;20266;-71
2023/02/15 11:10:02;;;;;;;26.63;18.93;;;4.30;99.90;;;;;;5048990;28;20250;-71
2023/02/15 11:12:31;;;;;;;28.33;18.43;;;4.30;99.90;;;;;;5046289;28;20720;-71
2023/02/15 11:15:05;;;;;;;26.73;18.83;;;4.40;99.90;;;;;;5036236;28;20641;-71
2023/02/15 11:17:38;;;;;;;25.33;18.23;;;4.50;99.90;;;;;;5048923;28;20279;-72
2023/02/15 11:20:17;;;;;;;26.70;18.10;;;4.60;99.90;;;;;;5048338;28;20781;-71
2023/02/15 11:22:48;;;;;;;27.73;19.17;;;4.80;99.90;;;;;;5028245;28;20189;-71
2023/02/15 11:25:20;;;;;;;25.90;18.33;;;5.00;99.90;;;;;;5028134;28;20636;-71
2023/02/15 11:27:49;;;;;;;26.03;18.33;;;5.10;99.90;;;;;;5028443;28;20227;-71
2023/02/15 11:30:23;;;;;;;27.07;19.07;;;5.30;99.90;;;;;;5031679;28;20215;-71
2023/02/15 11:32:54;;;;;;;26.73;18.20;;;5.50;99.90;;;;;;5048162;28;20193;-71
2023/02/15 11:35:27;;;;;;;26.60;18.37;;;5.70;99.90;;;;;;5048204;28;20266;-71
2023/02/15 11:37:59;;;;;;;24.13;18.50;;;5.80;99.90;;;;;;5048248;28;20235;-71
2023/02/15 11:40:29;;;;;;;24.33;17.97;;;6.00;99.90;;;;;;5048211;28;20817;-71
2023/02/15 11:42:58;;;;;;;24.53;17.80;;;6.20;99.90;;;;;;5037718;28;20235;-71
2023/02/15 11:45:30;;;;;;;24.93;18.53;;;6.40;99.90;;;;;;5048098;28;20204;-71
2023/02/15 11:47:58;;;;;;;25.07;18.50;;;6.60;99.90;;;;;;5047755;28;20311;-71
2023/02/15 11:50:28;;;;;;;24.23;18.37;;;6.80;99.90;;;;;;5047825;28;20298;-71
2023/02/15 11:52:59;;;;;;;24.43;17.77;;;6.90;99.90;;;;;;5047850;28;20335;-71
2023/02/15 11:55:29;;;;;;;24.20;17.60;;;7.00;99.90;;;;;;5048040;28;20192;-71
2023/02/15 11:58:02;;;;;;;23.67;18.30;;;7.10;99.90;;;;;;5045307;28;20225;-71
2023/02/15 12:00:37;;;;;;;23.37;18.00;;;7.30;99.90;;;;;;5048012;28;20192;-71
2023/02/15 12:03:13;;;;;;;24.70;17.67;;;7.50;99.90;;;;;;5045281;28;21031;-71
2023/02/15 12:05:43;;;;;;;21.87;17.27;;;7.60;99.90;;;;;;5035942;28;20224;-71
2023/02/15 12:08:17;;;;;;;21.23;17.17;;;7.70;99.90;;;;;;5027364;28;20717;-71
2023/02/15 12:10:54;;;;;;;23.37;18.03;;;7.70;99.90;;;;;;5027910;28;20201;-72
2023/02/15 12:13:22;;;;;;;21.50;17.70;;;7.90;99.90;;;;;;5027420;28;20343;-71
2023/02/15 12:15:53;;;;;;;23.47;17.77;;;8.00;99.90;;;;;;5027702;28;20239;-72
2023/02/15 12:18:28;;;;;;;21.80;16.77;;;8.10;99.90;;;;;;5036867;28;20706;-71
2023/02/15 12:21:00;;;;;;;21.97;17.43;;;8.30;99.90;;;;;;5046994;28;20298;-72
2023/02/15 12:23:30;;;;;;;22.30;17.03;;;8.40;99.90;;;;;;5041901;28;20190;-72
2023/02/15 12:25:58;;;;;;;22.63;16.97;;;8.50;99.90;;;;;;5035830;28;20207;-72
2023/02/15 12:28:31;;;;;;;23.80;16.83;;;8.60;99.90;;;;;;5047921;28;20255;-72
2023/02/15 12:31:00;;;;;;;23.30;17.17;;;8.80;99.90;;;;;;5038350;28;20193;-72
2023/02/15 12:33:31;;;;;;;21.50;16.27;;;8.90;99.90;;;;;;5032637;28;20202;-72
2023/02/15 12:36:01;;;;;;;20.97;15.87;;;9.00;99.90;;;;;;5046825;28;20647;-72
2023/02/15 12:38:29;;;;;;;22.83;16.30;;;9.20;99.90;;;;;;5047209;28;20639;-72
2023/02/15 12:41:01;;;;;;;18.93;15.67;;;9.30;99.90;;;;;;5047067;28;20204;-72
2023/02/15 12:43:32;;;;;;;21.03;16.03;;;9.40;99.90;;;;;;5042302;28;20983;-72
2023/02/15 12:49:19;;;;;;;20.73;17.23;;;9.50;99.90;;;;;;5146649;27;20559;-71
2023/02/15 12:51:49;;;;;;;19.80;15.53;;;9.70;99.90;;;;;;5146509;27;20185;-72
2023/02/15 12:54:39;;;;;;;19.93;16.30;;;9.80;99.90;;;;;;5134231;27;20285;-72
2023/02/15 12:57:31;;;;;;;18.03;15.00;;;10.00;99.90;;;;;;5125673;27;20800;-72
2023/02/15 13:00:01;;;;;;;19.00;15.90;;;10.10;99.90;;;;;;5099350;27;20246;-71
2023/02/15 13:02:41;;;;;;;19.03;16.00;;;10.30;99.90;;;;;;5105384;28;20854;-70
2023/02/15 13:05:19;;;;;;;15.90;14.17;;;10.30;99.90;;;;;;5123257;27;20639;-72
2023/02/15 13:07:49;;;;;;;18.13;15.23;;;10.50;99.90;;;;;;5125006;28;20772;-72
2023/02/15 13:10:29;;;;;;;18.70;15.80;;;10.60;99.90;;;;;;5125311;28;20201;-72
2023/02/15 13:12:57;;;;;;;17.73;14.67;;;10.70;99.90;;;;;;5125194;28;20738;-72
2023/02/15 13:15:36;;;;;;;17.70;15.47;;;10.70;99.90;;;;;;5104825;28;20214;-72
2023/02/15 13:18:05;;;;;;;17.77;14.20;;;10.70;99.90;;;;;;5113047;27;20214;-71
2023/02/15 13:20:36;;;;;;;19.00;15.23;;;10.70;99.90;;;;;;5145968;27;20205;-71
2023/02/15 13:23:06;;;;;;;18.43;14.77;;;10.70;99.90;;;;;;5129905;27;20289;-72
2023/02/15 13:25:43;;;;;;;18.83;13.93;;;10.80;99.90;;;;;;5125471;27;20288;-72
2023/02/15 13:28:15;;;;;;;18.67;15.20;;;10.80;99.90;;;;;;5125329;27;20240;-72